Terminal Aerodrome Forecast
Issued by NWS

Home | Current Version | Previous Version | Text Only | Print | Product List | Glossary On
Versions: 1 2 3 4 5 6 7 8 9 10 11 12 13 14 15 16 17 18 19 20 21 22 23 24 25 26 27 28 29 30 31 32
000
FTUS45 KBOU 281126
TAFBJC
TAF
KBJC 281126Z 2812/2912 VRB05KT P6SM SCT150 SCT220
     FM281400 30006KT P6SM SCT220
     FM281800 09007KT P6SM SCT080 SCT150
     FM282100 14008KT P6SM VCTS SCT080CB BKN150
      TEMPO 2822/2902 VRB20G30KT
     FM290200 18008KT P6SM SCT100 BKN200
     FM290600 24006KT P6SM SCT200=

USA.gov is the U.S. government's official web portal to all federal, state and local government web resources and services.